Time;durP1;ratioP1;P1;durP2;ratioP2;P2;SDS_P1;SDS_P2;PMS_P1;PMS_P2;Temp;Humidity;BMP_temperature;BMP_pressure;BME280_temperature;BME280_humidity;BME280_pressure;Samples;Min_cycle;Max_cycle;Signal;HPM_P1;HPM_P2
2023/01/24 00:01:35;;;;;;;19.07;12.63;;;9.70;99.90;;;;;;5071713;28;20702;-72
2023/01/24 00:04:01;;;;;;;16.73;12.73;;;9.60;99.90;;;;;;5079890;28;20818;-72
2023/01/24 00:06:28;;;;;;;14.93;11.63;;;9.50;99.90;;;;;;5084542;28;20194;-72
2023/01/24 00:08:55;;;;;;;14.87;11.20;;;9.40;99.90;;;;;;5082397;28;20675;-72
2023/01/24 00:11:25;;;;;;;18.23;12.30;;;9.40;99.90;;;;;;5097238;28;20192;-72
2023/01/24 00:13:52;;;;;;;14.33;10.73;;;9.40;99.90;;;;;;5088314;28;20208;-72
2023/01/24 00:16:24;;;;;;;15.20;10.43;;;9.20;99.90;;;;;;5082574;28;20202;-72
2023/01/24 00:18:51;;;;;;;18.47;11.00;;;9.20;99.90;;;;;;5068269;28;20178;-72
2023/01/24 00:21:24;;;;;;;14.03;10.83;;;9.10;99.90;;;;;;5074586;28;20186;-72
2023/01/24 00:23:55;;;;;;;15.70;10.87;;;9.10;99.90;;;;;;5095909;28;20193;-72
2023/01/24 00:26:29;;;;;;;13.93;10.50;;;9.00;99.90;;;;;;5079757;28;20198;-72
2023/01/24 00:28:58;;;;;;;18.03;12.03;;;9.00;99.90;;;;;;5075465;28;20195;-73
2023/01/24 00:31:40;;;;;;;23.37;11.47;;;9.00;99.90;;;;;;5082312;28;20571;-73
2023/01/24 00:34:15;;;;;;;17.90;12.63;;;9.00;99.90;;;;;;5074072;28;20206;-72
2023/01/24 00:36:48;;;;;;;15.97;12.47;;;9.00;99.90;;;;;;5090593;28;20562;-72
2023/01/24 00:39:25;;;;;;;20.70;12.50;;;9.00;99.90;;;;;;5056603;28;20186;-72
2023/01/24 00:42:03;;;;;;;18.27;12.47;;;9.10;99.90;;;;;;5070924;28;20190;-72
2023/01/24 00:44:34;;;;;;;14.57;12.43;;;9.10;99.90;;;;;;5090539;28;20190;-72
2023/01/24 00:47:00;;;;;;;16.83;12.43;;;9.20;99.90;;;;;;5087246;28;20194;-72
2023/01/24 00:49:36;;;;;;;19.60;14.10;;;9.20;99.90;;;;;;5077747;28;20647;-72
2023/01/24 00:52:06;;;;;;;17.90;13.17;;;9.20;99.90;;;;;;5073282;28;20239;-72
2023/01/24 00:54:39;;;;;;;15.83;12.90;;;9.20;99.90;;;;;;5082628;28;20293;-72
2023/01/24 00:57:06;;;;;;;16.73;13.00;;;9.20;99.90;;;;;;5082040;28;20255;-72
2023/01/24 00:59:34;;;;;;;16.53;13.37;;;9.20;99.90;;;;;;5072222;28;20559;-72
2023/01/24 01:02:07;;;;;;;15.73;13.03;;;9.30;99.90;;;;;;5080545;28;20251;-73
2023/01/24 01:04:41;;;;;;;19.63;13.70;;;9.20;99.90;;;;;;5077965;28;20182;-73
2023/01/24 01:07:14;;;;;;;22.00;13.70;;;9.20;99.90;;;;;;5075205;28;20190;-73
2023/01/24 01:09:47;;;;;;;18.47;13.90;;;9.20;99.90;;;;;;5077922;28;20656;-73
2023/01/24 01:12:17;;;;;;;19.10;13.33;;;9.20;99.90;;;;;;5092048;28;20239;-72
2023/01/24 01:14:57;;;;;;;19.40;13.63;;;9.20;99.90;;;;;;5077090;28;20556;-72
2023/01/24 01:17:29;;;;;;;18.00;13.70;;;9.10;99.90;;;;;;5078279;28;20288;-72
2023/01/24 01:20:01;;;;;;;18.73;14.07;;;9.20;99.90;;;;;;5073144;28;20539;-73
2023/01/24 01:22:33;;;;;;;19.67;14.00;;;9.20;99.90;;;;;;5085043;28;20238;-73
2023/01/24 01:25:00;;;;;;;19.17;13.53;;;9.20;99.90;;;;;;5080239;28;20531;-72
2023/01/24 01:27:27;;;;;;;20.77;13.57;;;9.10;99.90;;;;;;5088077;28;20182;-72
2023/01/24 01:29:56;;;;;;;21.53;14.00;;;9.10;99.90;;;;;;5077447;28;20282;-73
2023/01/24 01:32:28;;;;;;;18.30;13.53;;;9.00;99.90;;;;;;5081545;28;20666;-72
2023/01/24 01:34:57;;;;;;;17.43;13.90;;;9.00;99.90;;;;;;5086959;28;20205;-73
2023/01/24 01:37:30;;;;;;;18.77;14.03;;;9.00;99.90;;;;;;5089293;28;20186;-73
2023/01/24 01:39:59;;;;;;;20.47;13.57;;;9.10;99.90;;;;;;5080955;28;20190;-73
2023/01/24 01:42:45;;;;;;;19.37;13.53;;;9.10;99.90;;;;;;5079829;28;20516;-72
2023/01/24 01:45:43;;;;;;;17.73;13.00;;;9.00;99.90;;;;;;5069579;28;20187;-73
2023/01/24 01:48:29;;;;;;;17.40;13.63;;;9.00;99.90;;;;;;5067444;28;20191;-72
2023/01/24 01:51:43;;;;;;;19.33;14.50;;;9.00;99.90;;;;;;5085870;28;20189;-72
2023/01/24 01:54:31;;;;;;;19.97;13.07;;;8.90;99.90;;;;;;5076568;28;20210;-73
2023/01/24 01:57:24;;;;;;;20.17;13.17;;;8.90;99.90;;;;;;5086231;28;20198;-73
2023/01/24 02:00:03;;;;;;;19.83;13.97;;;8.90;99.90;;;;;;5074543;28;20194;-73
2023/01/24 02:02:39;;;;;;;17.47;13.33;;;9.00;99.90;;;;;;5066877;28;20178;-73
2023/01/24 02:05:10;;;;;;;23.33;13.50;;;8.90;99.90;;;;;;5086381;28;20951;-72
2023/01/24 02:08:11;;;;;;;18.80;14.13;;;8.90;99.90;;;;;;5086018;28;20606;-72
2023/01/24 02:13:39;;;;;;;21.97;12.93;;;8.90;99.90;;;;;;5089367;28;20202;-73
2023/01/24 02:16:09;;;;;;;22.63;14.63;;;8.80;99.90;;;;;;5092740;28;20177;-73
2023/01/24 02:18:44;;;;;;;22.63;13.90;;;8.80;99.90;;;;;;5087377;28;20763;-73
2023/01/24 02:21:17;;;;;;;18.90;13.10;;;8.80;99.90;;;;;;5078552;28;20180;-73
2023/01/24 02:24:10;;;;;;;17.63;13.40;;;8.80;99.90;;;;;;5083647;28;20198;-72
2023/01/24 02:26:39;;;;;;;19.03;13.80;;;8.70;99.90;;;;;;5087163;28;20674;-73
2023/01/24 02:29:16;;;;;;;17.10;13.03;;;8.70;99.90;;;;;;5085318;28;20201;-73
2023/01/24 02:32:07;;;;;;;17.87;13.87;;;8.70;99.90;;;;;;5075301;28;20229;-71
2023/01/24 02:34:40;;;;;;;15.93;13.00;;;8.80;99.90;;;;;;5079966;28;20210;-71
2023/01/24 02:37:12;;;;;;;17.43;13.37;;;8.80;99.90;;;;;;5080386;28;20194;-71
2023/01/24 02:39:58;;;;;;;17.37;12.87;;;8.80;99.90;;;;;;5076753;28;20198;-71
2023/01/24 02:42:46;;;;;;;18.43;13.40;;;8.80;99.90;;;;;;5082984;28;20184;-71
2023/01/24 02:45:28;;;;;;;17.70;13.10;;;8.80;99.90;;;;;;5093048;28;20232;-71
2023/01/24 02:48:01;;;;;;;18.30;12.60;;;8.80;99.90;;;;;;5081285;28;20186;-71
2023/01/24 02:53:29;;;;;;;17.17;12.70;;;8.70;99.90;;;;;;5066955;28;20238;-73
2023/01/24 02:58:52;;;;;;;18.63;14.00;;;8.60;99.90;;;;;;5085461;28;20182;-72
2023/01/24 03:01:23;;;;;;;20.97;13.50;;;8.70;99.90;;;;;;5079646;28;20188;-73
2023/01/24 03:03:58;;;;;;;17.23;12.50;;;8.60;99.90;;;;;;5070944;28;20191;-72
2023/01/24 03:06:29;;;;;;;17.43;11.90;;;8.60;99.90;;;;;;5079505;28;20196;-73
2023/01/24 03:09:17;;;;;;;19.77;12.27;;;8.60;99.90;;;;;;5076234;28;20908;-73
2023/01/24 03:11:51;;;;;;;16.07;12.23;;;8.50;99.90;;;;;;5078193;28;20620;-73
2023/01/24 03:36:52;;;;;;;14.40;11.50;;;8.40;99.90;;;;;;5078759;28;20227;-73
2023/01/24 03:42:09;;;;;;;19.17;11.47;;;8.30;99.90;;;;;;5082446;28;20190;-73
2023/01/24 03:44:37;;;;;;;15.27;10.77;;;8.40;99.90;;;;;;5086022;28;20224;-73
2023/01/24 03:47:06;;;;;;;17.80;11.17;;;8.40;99.90;;;;;;5084810;28;20182;-73
2023/01/24 03:52:27;;;;;;;15.63;11.10;;;8.40;99.90;;;;;;5083564;28;20209;-72
2023/01/24 03:54:59;;;;;;;14.97;10.93;;;8.30;99.90;;;;;;5072293;28;20806;-73
2023/01/24 03:57:32;;;;;;;12.87;10.40;;;8.30;99.90;;;;;;5081005;28;20186;-73
2023/01/24 03:59:58;;;;;;;16.70;11.03;;;8.30;99.90;;;;;;5075308;28;20183;-73
2023/01/24 04:02:28;;;;;;;15.73;10.83;;;8.30;99.90;;;;;;5082734;28;20272;-73
2023/01/24 04:05:12;;;;;;;15.70;10.63;;;8.30;99.90;;;;;;5082828;28;20190;-72
2023/01/24 04:07:43;;;;;;;13.20;10.10;;;8.30;99.90;;;;;;5076592;28;20190;-72
2023/01/24 04:10:10;;;;;;;17.10;10.30;;;8.20;99.90;;;;;;5077700;28;20614;-72
2023/01/24 04:12:37;;;;;;;13.30;9.67;;;8.10;99.90;;;;;;5082915;28;20190;-72
2023/01/24 04:15:06;;;;;;;14.73;11.00;;;8.10;99.90;;;;;;5090065;28;20265;-72
2023/01/24 04:17:33;;;;;;;14.67;11.17;;;8.10;99.90;;;;;;5084002;28;20200;-73
2023/01/24 04:19:59;;;;;;;13.40;10.43;;;8.10;99.90;;;;;;5082499;28;20693;-72
2023/01/24 04:22:29;;;;;;;13.77;9.87;;;8.10;99.90;;;;;;5081222;28;20668;-72
2023/01/24 04:24:56;;;;;;;15.60;10.37;;;8.10;99.90;;;;;;5069657;28;20202;-72
2023/01/24 04:27:29;;;;;;;17.23;10.73;;;8.10;99.90;;;;;;5085721;28;20568;-72
2023/01/24 04:29:55;;;;;;;15.30;10.50;;;8.10;99.90;;;;;;5084484;28;20189;-72
2023/01/24 04:32:24;;;;;;;16.67;11.03;;;8.10;99.90;;;;;;5088128;28;20190;-73
2023/01/24 04:34:53;;;;;;;14.23;10.77;;;8.10;99.90;;;;;;5074584;28;20301;-73
2023/01/24 04:37:23;;;;;;;13.93;10.80;;;8.10;99.90;;;;;;5081639;28;20224;-73
2023/01/24 04:39:54;;;;;;;13.83;11.07;;;8.10;99.90;;;;;;5072596;28;20296;-72
2023/01/24 04:42:21;;;;;;;13.00;10.20;;;8.00;99.90;;;;;;5072759;28;20617;-73
2023/01/24 04:44:47;;;;;;;17.17;10.67;;;8.00;99.90;;;;;;5087761;28;20186;-72
2023/01/24 04:47:15;;;;;;;17.50;11.40;;;8.00;99.90;;;;;;5075149;28;20340;-73
2023/01/24 04:49:42;;;;;;;14.13;10.40;;;8.00;99.90;;;;;;5089895;28;20531;-73
2023/01/24 04:52:17;;;;;;;18.37;10.80;;;8.00;99.90;;;;;;5093617;28;20205;-73
2023/01/24 04:54:45;;;;;;;13.03;9.93;;;7.90;99.90;;;;;;5091548;28;20239;-72
2023/01/24 04:57:16;;;;;;;13.60;10.03;;;7.90;99.90;;;;;;5084248;28;20220;-72
2023/01/24 04:59:42;;;;;;;11.10;9.63;;;7.90;99.90;;;;;;5078906;28;20189;-73
2023/01/24 05:02:11;;;;;;;14.53;9.20;;;8.00;99.90;;;;;;5076455;28;20221;-72
2023/01/24 05:04:39;;;;;;;14.57;9.40;;;8.00;99.90;;;;;;5083659;28;20188;-72
2023/01/24 05:07:11;;;;;;;11.40;9.07;;;8.00;99.90;;;;;;5084813;28;20185;-72
2023/01/24 05:09:38;;;;;;;12.47;9.47;;;8.00;99.90;;;;;;5099213;28;21042;-73
2023/01/24 05:12:05;;;;;;;13.90;9.10;;;8.00;99.90;;;;;;5090512;28;20223;-73
2023/01/24 05:14:31;;;;;;;13.33;9.23;;;7.90;99.90;;;;;;5084363;28;20209;-72
2023/01/24 05:17:00;;;;;;;16.03;8.80;;;8.00;99.90;;;;;;5080247;28;20190;-73
2023/01/24 05:19:31;;;;;;;10.90;7.77;;;8.00;99.90;;;;;;5074397;28;20683;-72
2023/01/24 05:22:07;;;;;;;11.00;8.40;;;8.00;99.90;;;;;;5094767;28;20190;-72
2023/01/24 05:24:36;;;;;;;13.00;8.27;;;7.90;99.90;;;;;;5079228;28;20478;-73
2023/01/24 05:27:08;;;;;;;12.93;8.70;;;7.90;99.90;;;;;;5079909;28;20698;-72
2023/01/24 05:29:36;;;;;;;12.23;8.10;;;7.90;99.90;;;;;;5080712;28;20197;-73
2023/01/24 05:32:07;;;;;;;11.47;8.20;;;8.00;99.90;;;;;;5089609;28;20198;-72
2023/01/24 05:34:37;;;;;;;11.57;8.37;;;8.00;99.90;;;;;;5075764;28;20209;-72
2023/01/24 05:37:10;;;;;;;11.17;8.00;;;8.10;99.90;;;;;;5083240;28;20185;-73
2023/01/24 05:39:42;;;;;;;12.70;8.07;;;8.10;99.90;;;;;;5076255;28;20198;-73
2023/01/24 05:42:10;;;;;;;9.90;7.97;;;8.10;99.90;;;;;;5078434;28;20734;-73
2023/01/24 05:44:39;;;;;;;10.07;7.80;;;8.20;99.90;;;;;;5091214;28;20178;-73
2023/01/24 05:47:06;;;;;;;13.93;7.53;;;8.20;99.90;;;;;;5092583;28;20216;-73
2023/01/24 05:49:33;;;;;;;11.27;8.83;;;8.20;99.90;;;;;;5085034;28;20196;-72
2023/01/24 05:52:04;;;;;;;9.27;7.40;;;8.20;99.90;;;;;;5082936;28;20197;-73
2023/01/24 05:54:31;;;;;;;8.87;7.27;;;8.30;99.90;;;;;;5086217;28;20209;-73
2023/01/24 05:57:00;;;;;;;12.23;7.53;;;8.30;99.90;;;;;;5083971;28;20316;-73
2023/01/24 05:59:26;;;;;;;9.93;7.53;;;8.30;99.90;;;;;;5078336;28;20718;-72
2023/01/24 06:01:58;;;;;;;14.90;6.97;;;8.30;99.90;;;;;;5096621;28;20268;-73
2023/01/24 06:04:33;;;;;;;10.37;7.30;;;8.30;99.90;;;;;;5054083;28;20198;-72
2023/01/24 06:06:59;;;;;;;10.47;6.87;;;8.30;99.90;;;;;;5079792;28;20194;-73
2023/01/24 06:09:31;;;;;;;11.03;7.10;;;8.30;99.90;;;;;;5075041;28;20191;-73
2023/01/24 06:12:01;;;;;;;11.60;7.23;;;8.40;99.90;;;;;;5078355;28;20183;-73
2023/01/24 06:14:38;;;;;;;11.53;7.00;;;8.30;99.90;;;;;;5093424;27;20206;-72
2023/01/24 06:17:07;;;;;;;11.47;6.97;;;8.40;99.90;;;;;;5081576;28;20194;-73
2023/01/24 06:19:35;;;;;;;11.50;7.60;;;8.50;99.90;;;;;;5079310;28;20174;-73
2023/01/24 06:22:28;;;;;;;11.67;7.13;;;8.50;99.90;;;;;;5083519;28;20196;-72
2023/01/24 06:25:00;;;;;;;11.30;6.77;;;8.60;99.90;;;;;;5077657;28;20210;-73
2023/01/24 06:27:27;;;;;;;12.63;7.73;;;8.70;99.90;;;;;;5084713;28;20186;-73
2023/01/24 06:29:54;;;;;;;10.47;7.23;;;8.80;99.90;;;;;;5082260;28;20194;-73
2023/01/24 06:33:02;;;;;;;13.30;7.90;;;8.90;99.90;;;;;;5076801;28;20559;-73
2023/01/24 06:36:10;;;;;;;11.33;7.17;;;9.00;99.90;;;;;;5086911;28;20217;-73
2023/01/24 06:38:38;;;;;;;10.67;7.83;;;9.00;99.90;;;;;;5073645;28;20293;-72
2023/01/24 06:41:17;;;;;;;9.00;7.67;;;9.20;99.90;;;;;;5083077;28;20191;-73
2023/01/24 06:43:44;;;;;;;13.67;8.13;;;9.30;99.90;;;;;;5083309;28;20180;-72
2023/01/24 06:46:14;;;;;;;11.20;7.97;;;9.40;99.90;;;;;;5074807;28;20813;-73
2023/01/24 06:48:47;;;;;;;10.00;7.73;;;9.40;99.90;;;;;;5074376;28;20304;-72
2023/01/24 06:51:16;;;;;;;8.70;6.77;;;9.50;99.90;;;;;;5082008;28;20194;-73
2023/01/24 06:53:50;;;;;;;12.57;7.03;;;9.50;99.90;;;;;;5079050;28;20206;-73
2023/01/24 06:56:24;;;;;;;11.27;7.40;;;9.60;99.90;;;;;;5077957;28;20182;-72
2023/01/24 06:58:50;;;;;;;9.27;7.50;;;9.80;99.90;;;;;;5084013;28;20187;-73
2023/01/24 07:01:16;;;;;;;11.07;7.50;;;9.80;99.90;;;;;;5089067;28;20241;-73
2023/01/24 07:03:46;;;;;;;9.70;7.00;;;9.80;99.90;;;;;;5069908;28;20258;-73
2023/01/24 07:06:17;;;;;;;9.63;6.97;;;9.90;99.90;;;;;;5082080;28;20189;-72
2023/01/24 07:08:43;;;;;;;10.07;7.30;;;9.90;99.90;;;;;;5079205;28;20190;-73
2023/01/24 07:11:12;;;;;;;10.83;7.43;;;10.00;99.90;;;;;;5080365;28;20220;-73
2023/01/24 07:13:45;;;;;;;10.03;7.23;;;10.10;99.90;;;;;;5075229;28;20235;-73
2023/01/24 07:16:19;;;;;;;9.27;7.10;;;10.10;99.90;;;;;;5084936;28;20182;-73
2023/01/24 07:18:45;;;;;;;8.30;7.00;;;10.20;99.90;;;;;;5064441;28;20676;-73
2023/01/24 07:21:13;;;;;;;10.33;6.63;;;10.20;99.90;;;;;;5074478;28;20184;-72
2023/01/24 07:23:49;;;;;;;13.40;8.10;;;10.20;99.90;;;;;;5071068;28;20239;-72
2023/01/24 07:26:18;;;;;;;12.27;8.03;;;10.20;99.90;;;;;;5078345;28;20185;-73
2023/01/24 07:28:48;;;;;;;11.17;8.53;;;10.30;99.90;;;;;;5093045;28;22605;-73
2023/01/24 07:31:16;;;;;;;9.37;7.57;;;10.30;99.90;;;;;;5067515;28;20194;-73
2023/01/24 07:33:45;;;;;;;10.77;8.20;;;10.30;99.90;;;;;;5076974;28;20297;-73
2023/01/24 07:36:16;;;;;;;12.57;8.57;;;10.30;99.90;;;;;;5083630;28;20186;-73
2023/01/24 07:38:43;;;;;;;10.57;7.80;;;10.40;99.90;;;;;;5073574;28;20194;-73
2023/01/24 07:41:11;;;;;;;11.33;8.00;;;10.40;99.90;;;;;;5078869;28;20221;-73
2023/01/24 07:43:38;;;;;;;10.37;8.30;;;10.40;99.90;;;;;;5077148;28;20219;-73
2023/01/24 07:46:11;;;;;;;13.60;8.07;;;10.40;99.90;;;;;;5077837;28;20188;-73
2023/01/24 07:48:37;;;;;;;14.57;9.17;;;10.50;99.90;;;;;;5069971;28;20892;-73
2023/01/24 07:51:14;;;;;;;11.87;8.60;;;10.50;99.90;;;;;;5081541;28;20182;-73
2023/01/24 07:53:40;;;;;;;12.77;8.40;;;10.50;99.90;;;;;;5086028;28;20257;-73
2023/01/24 07:56:07;;;;;;;13.57;9.17;;;10.70;99.90;;;;;;5079110;28;20651;-73
2023/01/24 07:58:33;;;;;;;14.47;8.60;;;10.70;99.90;;;;;;5076452;28;20797;-73
2023/01/24 08:01:12;;;;;;;10.60;8.13;;;10.70;99.90;;;;;;5075699;28;20300;-73
2023/01/24 08:03:41;;;;;;;13.10;8.93;;;10.70;99.90;;;;;;5075338;28;20185;-73
2023/01/24 08:06:11;;;;;;;14.20;8.40;;;10.70;99.90;;;;;;5079213;28;20188;-73
2023/01/24 08:08:40;;;;;;;11.23;8.23;;;10.70;99.90;;;;;;5073647;28;20182;-73
2023/01/24 08:11:15;;;;;;;12.77;8.57;;;10.70;99.90;;;;;;5080499;28;20194;-73
2023/01/24 08:13:47;;;;;;;14.53;8.10;;;10.80;99.90;;;;;;5074823;28;20202;-73
2023/01/24 08:16:14;;;;;;;10.40;8.55;;;10.80;99.90;;;;;;5078702;28;20497;-73
2023/01/24 08:18:40;;;;;;;9.67;7.47;;;10.90;99.90;;;;;;5079078;28;20589;-73
2023/01/24 08:21:07;;;;;;;11.03;7.43;;;10.90;99.90;;;;;;5078412;28;20865;-73
2023/01/24 08:23:34;;;;;;;11.43;7.83;;;10.90;99.90;;;;;;5084886;28;20239;-73
2023/01/24 08:26:06;;;;;;;11.63;7.97;;;11.00;99.90;;;;;;5082011;28;20603;-73
2023/01/24 08:28:35;;;;;;;11.33;7.27;;;11.00;99.90;;;;;;5072142;28;20186;-73
2023/01/24 08:31:02;;;;;;;12.83;8.90;;;11.10;99.90;;;;;;5082480;28;20200;-73
2023/01/24 08:33:28;;;;;;;13.03;9.47;;;11.20;99.90;;;;;;5084363;28;20296;-73
2023/01/24 08:35:54;;;;;;;15.07;9.17;;;11.30;99.90;;;;;;5085733;28;20682;-73
2023/01/24 08:38:22;;;;;;;12.83;9.30;;;11.50;99.90;;;;;;5082406;28;20717;-73
2023/01/24 08:40:52;;;;;;;11.73;8.77;;;11.60;99.90;;;;;;5077660;28;20846;-73
2023/01/24 08:43:19;;;;;;;13.67;9.33;;;11.70;99.90;;;;;;5080505;28;20199;-73
2023/01/24 08:45:45;;;;;;;13.30;8.73;;;11.90;99.90;;;;;;5085307;28;20190;-73
2023/01/24 08:48:11;;;;;;;14.93;9.73;;;11.90;99.90;;;;;;5082194;28;20182;-73
2023/01/24 08:50:38;;;;;;;15.30;9.47;;;12.10;99.90;;;;;;5081265;28;20579;-73
2023/01/24 08:53:04;;;;;;;12.33;8.73;;;12.20;99.90;;;;;;5078734;28;20281;-73
2023/01/24 08:55:30;;;;;;;14.73;9.30;;;12.20;99.90;;;;;;5087290;28;20197;-72
2023/01/24 08:58:04;;;;;;;10.23;8.13;;;12.30;99.90;;;;;;5089589;28;20178;-73
2023/01/24 09:00:31;;;;;;;11.37;7.93;;;12.30;99.90;;;;;;5083973;28;20186;-73
2023/01/24 09:03:00;;;;;;;10.77;7.57;;;12.40;99.90;;;;;;5077642;28;20692;-73
2023/01/24 09:05:28;;;;;;;13.33;7.87;;;12.50;99.90;;;;;;5083090;28;20196;-73
2023/01/24 09:07:55;;;;;;;13.43;9.80;;;12.60;99.90;;;;;;5060223;28;20178;-73
2023/01/24 09:10:24;;;;;;;17.10;10.00;;;12.60;99.90;;;;;;5064601;28;20191;-73
2023/01/24 09:12:50;;;;;;;12.07;9.20;;;12.60;99.90;;;;;;5084988;28;20235;-73
2023/01/24 09:15:22;;;;;;;14.30;9.37;;;12.70;99.90;;;;;;5083427;28;20210;-73
2023/01/24 09:17:54;;;;;;;14.10;9.00;;;12.90;99.90;;;;;;5089604;28;20186;-73
2023/01/24 09:20:22;;;;;;;11.17;7.60;;;13.00;99.90;;;;;;5075714;28;20908;-73
2023/01/24 09:22:52;;;;;;;16.10;8.63;;;13.10;99.90;;;;;;5081708;28;20749;-73
2023/01/24 09:25:24;;;;;;;13.23;7.70;;;13.20;99.90;;;;;;5087995;28;20185;-73
2023/01/24 09:28:01;;;;;;;13.97;8.80;;;13.20;99.90;;;;;;5057782;28;20211;-73
2023/01/24 09:30:30;;;;;;;10.57;7.40;;;13.20;99.90;;;;;;5082892;28;20190;-73
2023/01/24 09:33:06;;;;;;;11.17;8.07;;;13.20;99.90;;;;;;5080749;28;20273;-73
2023/01/24 09:35:37;;;;;;;10.70;8.33;;;13.30;99.90;;;;;;5081073;28;20193;-73
2023/01/24 09:38:03;;;;;;;11.23;8.33;;;13.40;99.90;;;;;;5079495;28;20187;-73
2023/01/24 09:40:46;;;;;;;11.47;7.80;;;13.40;99.90;;;;;;5090048;28;20206;-72
2023/01/24 09:43:36;;;;;;;12.83;8.17;;;13.50;99.90;;;;;;5090409;28;20183;-72
2023/01/24 09:46:42;;;;;;;11.27;8.30;;;13.60;99.90;;;;;;5092219;28;20290;-73
2023/01/24 09:49:49;;;;;;;13.77;8.73;;;13.70;99.90;;;;;;5070196;28;20181;-73
2023/01/24 09:52:43;;;;;;;11.37;8.47;;;13.80;99.90;;;;;;5082804;28;20774;-73
2023/01/24 09:55:29;;;;;;;15.97;9.00;;;13.80;99.90;;;;;;5078159;28;20288;-73
2023/01/24 09:58:11;;;;;;;11.80;8.70;;;14.00;99.90;;;;;;5075735;28;20190;-73
2023/01/24 10:00:39;;;;;;;11.60;8.27;;;14.00;99.90;;;;;;5078706;28;20186;-73
2023/01/24 10:03:26;;;;;;;14.07;8.47;;;13.90;99.90;;;;;;5076718;28;22334;-73
2023/01/24 10:06:09;;;;;;;13.67;8.17;;;13.90;99.90;;;;;;5083116;28;20265;-73
2023/01/24 10:08:50;;;;;;;12.90;7.70;;;13.90;99.90;;;;;;5092451;27;20858;-73
2023/01/24 10:11:55;;;;;;;14.07;8.03;;;14.00;99.90;;;;;;5074261;28;20178;-73
2023/01/24 10:14:58;;;;;;;11.27;7.83;;;14.10;99.90;;;;;;5056583;28;20264;-73
2023/01/24 10:17:35;;;;;;;12.47;6.97;;;14.20;99.90;;;;;;5081503;28;20236;-73
2023/01/24 10:20:03;;;;;;;10.70;8.03;;;14.20;99.90;;;;;;5071741;28;20186;-73
2023/01/24 10:23:01;;;;;;;10.90;7.63;;;14.20;99.90;;;;;;5079814;28;20218;-73
2023/01/24 10:26:09;;;;;;;10.17;7.23;;;14.20;99.90;;;;;;5038419;28;20250;-73
2023/01/24 10:28:50;;;;;;;12.27;7.27;;;14.30;99.90;;;;;;5077486;28;20198;-73
2023/01/24 10:31:26;;;;;;;13.07;6.87;;;14.40;99.90;;;;;;5079422;28;20653;-73
2023/01/24 10:34:00;;;;;;;10.73;7.40;;;14.50;99.90;;;;;;5077721;28;21036;-73
2023/01/24 10:37:07;;;;;;;8.23;6.83;;;14.50;99.90;;;;;;5077479;28;20193;-73
2023/01/24 10:39:43;;;;;;;10.60;7.27;;;14.60;99.90;;;;;;5076897;28;20188;-73
2023/01/24 10:42:33;;;;;;;16.13;7.07;;;14.70;99.90;;;;;;5077017;28;20259;-73
2023/01/24 10:45:46;;;;;;;15.23;7.00;;;14.80;99.90;;;;;;5073608;28;20296;-73
2023/01/24 10:48:35;;;;;;;8.53;6.33;;;14.90;99.90;;;;;;5032320;28;20245;-73
2023/01/24 10:51:17;;;;;;;10.97;6.73;;;15.00;99.90;;;;;;5070329;28;20761;-73
2023/01/24 10:54:02;;;;;;;8.80;6.07;;;15.00;99.90;;;;;;5082278;28;20627;-73
2023/01/24 10:56:42;;;;;;;9.37;7.43;;;15.20;99.90;;;;;;5087490;28;20194;-73
2023/01/24 10:59:34;;;;;;;10.37;6.53;;;15.50;99.90;;;;;;5072952;28;20189;-73
2023/01/24 11:02:22;;;;;;;11.53;6.30;;;15.60;99.90;;;;;;5072865;28;20194;-73
2023/01/24 11:05:12;;;;;;;16.17;6.43;;;15.70;99.90;;;;;;5071793;28;20218;-73
2023/01/24 11:07:51;;;;;;;15.73;6.70;;;15.60;99.90;;;;;;5075321;28;20197;-73
2023/01/24 11:10:30;;;;;;;9.00;6.67;;;15.60;99.90;;;;;;5076057;28;20190;-73
2023/01/24 11:13:24;;;;;;;10.17;6.53;;;15.70;99.90;;;;;;5077121;28;20594;-73
2023/01/24 11:16:16;;;;;;;8.00;5.77;;;15.80;99.90;;;;;;5079314;28;20215;-73
2023/01/24 11:19:04;;;;;;;9.87;5.87;;;16.00;99.90;;;;;;5077267;28;20219;-73
2023/01/24 11:21:53;;;;;;;9.83;6.27;;;16.10;99.90;;;;;;5080768;28;20194;-73
2023/01/24 11:24:21;;;;;;;8.13;6.03;;;16.20;99.90;;;;;;5082676;28;20200;-73
2023/01/24 11:26:56;;;;;;;8.97;6.40;;;16.40;99.90;;;;;;5077945;28;20261;-73
2023/01/24 11:29:27;;;;;;;11.60;6.57;;;16.30;99.90;;;;;;5077206;28;20194;-73
2023/01/24 11:32:34;;;;;;;9.50;5.37;;;16.30;99.90;;;;;;5069056;28;20197;-73
2023/01/24 11:35:34;;;;;;;10.80;6.60;;;16.20;99.90;;;;;;5074166;28;20194;-73
2023/01/24 11:38:25;;;;;;;9.77;5.97;;;16.10;99.90;;;;;;5081157;28;20195;-73
2023/01/24 11:41:30;;;;;;;13.77;6.60;;;16.00;99.90;;;;;;5099327;27;20186;-73
2023/01/24 11:44:41;;;;;;;8.27;5.90;;;15.90;99.90;;;;;;5085980;28;20208;-73
2023/01/24 11:47:20;;;;;;;13.80;7.00;;;15.90;99.90;;;;;;5084060;28;20188;-73
2023/01/24 11:50:27;;;;;;;7.27;5.80;;;15.90;99.90;;;;;;5076741;28;20232;-73
2023/01/24 11:53:24;;;;;;;10.43;6.47;;;16.00;99.90;;;;;;5064037;28;20651;-73
2023/01/24 11:56:07;;;;;;;9.57;6.07;;;16.00;99.90;;;;;;5066862;28;20179;-73
2023/01/24 11:59:27;;;;;;;8.73;6.27;;;16.00;99.90;;;;;;5086075;28;20186;-73
2023/01/24 12:02:22;;;;;;;9.43;5.73;;;16.10;99.90;;;;;;5084907;28;20186;-73
2023/01/24 12:05:33;;;;;;;9.47;6.07;;;16.10;99.90;;;;;;5076292;28;20885;-73
2023/01/24 12:08:15;;;;;;;8.37;5.60;;;16.10;99.90;;;;;;5074528;28;20197;-73
2023/01/24 12:11:07;;;;;;;10.53;5.90;;;16.00;99.90;;;;;;5069457;28;20186;-73
2023/01/24 12:13:46;;;;;;;7.50;5.63;;;16.00;99.90;;;;;;5090854;28;20301;-73
2023/01/24 12:17:07;;;;;;;9.43;5.87;;;16.00;99.90;;;;;;5070079;28;20179;-73
2023/01/24 12:20:25;;;;;;;8.93;6.07;;;16.00;99.90;;;;;;5080515;28;20266;-73
2023/01/24 12:23:02;;;;;;;10.03;6.57;;;16.00;99.90;;;;;;5081007;28;20190;-73
2023/01/24 12:25:45;;;;;;;13.57;6.53;;;15.90;99.90;;;;;;5088763;28;20713;-73
2023/01/24 12:28:41;;;;;;;9.17;6.93;;;15.90;99.90;;;;;;5086843;28;20177;-73
2023/01/24 12:31:19;;;;;;;9.33;6.90;;;15.90;99.90;;;;;;5085175;28;20182;-73
2023/01/24 12:34:21;;;;;;;8.97;6.70;;;15.90;99.90;;;;;;5083401;28;20283;-73
2023/01/24 12:37:22;;;;;;;9.73;6.80;;;15.80;99.90;;;;;;5097236;28;20178;-73
2023/01/24 12:40:34;;;;;;;8.60;6.43;;;15.70;99.90;;;;;;5089347;28;20189;-73
2023/01/24 12:43:40;;;;;;;7.53;6.37;;;15.70;99.90;;;;;;5099118;28;20181;-73
2023/01/24 12:46:26;;;;;;;10.13;6.53;;;15.70;99.90;;;;;;5077105;28;20205;-73
2023/01/24 12:49:31;;;;;;;9.07;6.17;;;15.70;99.90;;;;;;5075005;28;20731;-73
2023/01/24 12:52:35;;;;;;;11.67;7.27;;;15.70;99.90;;;;;;5073906;28;20296;-73
2023/01/24 12:55:30;;;;;;;12.57;6.60;;;15.70;99.90;;;;;;5083807;28;20252;-73
2023/01/24 12:58:04;;;;;;;12.00;6.60;;;15.70;99.90;;;;;;5079168;28;20239;-73
2023/01/24 13:01:05;;;;;;;10.93;6.53;;;15.70;99.90;;;;;;5077835;28;20182;-73
2023/01/24 13:04:07;;;;;;;13.20;6.80;;;15.60;99.90;;;;;;5078677;28;20185;-73
2023/01/24 13:07:16;;;;;;;11.90;7.00;;;15.60;99.90;;;;;;5073004;28;20189;-73
2023/01/24 13:10:40;;;;;;;9.67;7.00;;;15.60;99.90;;;;;;5054562;28;20193;-73
2023/01/24 13:13:36;;;;;;;10.67;6.70;;;15.50;99.90;;;;;;5071122;28;21120;-73
2023/01/24 13:16:26;;;;;;;8.43;6.13;;;15.40;99.90;;;;;;5071295;28;20830;-73
2023/01/24 13:19:11;;;;;;;14.00;6.90;;;15.40;99.90;;;;;;5076979;28;20224;-73
2023/01/24 13:22:22;;;;;;;10.30;6.10;;;15.40;99.90;;;;;;5081534;28;20308;-73
2023/01/24 13:25:18;;;;;;;10.60;7.07;;;15.40;99.90;;;;;;5039861;28;20187;-73
2023/01/24 13:28:23;;;;;;;10.10;6.03;;;15.30;99.90;;;;;;5071981;28;20621;-73
2023/01/24 13:31:15;;;;;;;10.47;5.97;;;15.30;99.90;;;;;;5062807;28;20203;-73
2023/01/24 13:34:13;;;;;;;8.20;6.13;;;15.20;99.90;;;;;;5073785;28;20715;-73
2023/01/24 13:36:51;;;;;;;10.97;6.30;;;15.20;99.90;;;;;;5082782;28;20190;-73
2023/01/24 13:39:50;;;;;;;9.40;6.10;;;15.10;99.90;;;;;;5077840;28;20190;-73
2023/01/24 13:42:38;;;;;;;12.10;5.87;;;15.00;99.90;;;;;;5079910;28;20243;-73
2023/01/24 13:45:26;;;;;;;10.17;6.23;;;15.00;99.90;;;;;;5076785;28;20212;-73
2023/01/24 13:48:03;;;;;;;10.20;6.20;;;15.00;99.90;;;;;;5082239;28;20210;-73
2023/01/24 13:50:32;;;;;;;11.57;6.87;;;14.90;99.90;;;;;;5080848;28;20794;-73
2023/01/24 13:53:01;;;;;;;17.60;6.40;;;14.90;99.90;;;;;;5084617;28;20754;-73
2023/01/24 13:55:29;;;;;;;10.57;5.83;;;14.90;99.90;;;;;;5083925;28;20209;-73
2023/01/24 13:58:08;;;;;;;12.50;6.23;;;14.80;99.90;;;;;;5081273;28;20186;-73
2023/01/24 14:00:51;;;;;;;14.97;6.73;;;14.80;99.90;;;;;;5074208;28;20181;-73
2023/01/24 14:03:37;;;;;;;12.40;6.60;;;14.70;99.90;;;;;;5077962;28;20244;-73
2023/01/24 14:06:13;;;;;;;13.73;6.33;;;14.60;99.90;;;;;;5084327;28;20194;-73
2023/01/24 14:08:53;;;;;;;16.57;6.97;;;14.60;99.90;;;;;;5082352;28;20186;-73
2023/01/24 14:11:35;;;;;;;11.80;6.03;;;14.60;99.90;;;;;;5073109;28;20852;-73